Terminal Aerodrome Forecast
Issued by NWS

Home | Current Version | Previous Version | Text Only | Print | Product List | Glossary On
Versions: 1 2 3 4 5 6 7 8 9 10 11 12
000
FTUS45 KVEF 172300
TAFEED
TAF
KEED 172320Z 1800/1824 20013G23KT P6SM OVC250
     FM180300 22011KT P6SM OVC250
     FM181000 VRB05KT P6SM OVC200
     FM181800 19013G23KT P6SM SCT150 OVC200=

USA.gov is the U.S. government's official web portal to all federal, state and local government web resources and services.